Time,TemperatureF,DewpointF,PressureIn,WindDirection,WindDirectionDegrees,WindSpeedMPH,WindSpeedGustMPH,Humidity,HourlyPrecipIn,Conditions,Clouds,dailyrainin,SoftwareType,DateUTC
2013-01-19 00:00:00,37.1,26.4,24.33,SSW,196,4.0,22.0,65,0.00,,SKC,0.00,VWS V14.01,2013-01-19 05:00:00,
2013-01-19 00:01:00,37.1,26.4,24.33,WSW,242,10.0,26.0,65,0.00,,SKC,0.00,VWS V14.01,2013-01-19 05:01:00,
2013-01-19 00:02:00,37.1,26.4,24.33,SW,225,11.0,26.0,65,0.00,,SKC,0.00,VWS V14.01,2013-01-19 05:02:00,
2013-01-19 00:03:00,37.1,26.4,24.33,SW,234,11.0,13.0,65,0.00,,SKC,0.00,VWS V14.01,2013-01-19 05:03:00,
2013-01-19 00:08:00,37.1,26.4,24.33,South,189,9.0,14.0,65,0.00,,SKC,0.00,VWS V14.01,2013-01-19 05:08:00,
2013-01-19 00:13:00,37.1,26.4,24.33,SSW,202,9.0,14.0,65,0.00,,SKC,0.00,VWS V14.01,2013-01-19 05:13:00,
2013-01-19 00:18:00,37.1,26.4,24.47,SW,226,16.0,16.0,65,0.00,,SKC,0.00,VWS V14.01,2013-01-19 05:18:00,
2013-01-19 00:23:00,37.1,26.8,24.25,SSW,200,6.0,9.0,66,0.00,,SKC,0.00,VWS V14.01,2013-01-19 05:23:00,
2013-01-19 00:28:00,37.0,26.7,24.34,SW,227,2.0,10.0,66,0.00,,SKC,0.00,VWS V14.01,2013-01-19 05:28:00,
2013-01-19 00:33:00,36.9,26.6,24.34,SSW,206,6.0,12.0,66,0.00,,SKC,0.00,VWS V14.01,2013-01-19 05:33:00,
2013-01-19 00:38:00,37.0,26.7,24.34,SSE,165,9.0,11.0,66,0.00,,SKC,0.00,VWS V14.01,2013-01-19 05:38:00,
2013-01-19 00:43:00,36.9,26.6,24.34,SW,215,12.0,18.0,66,0.00,,SKC,0.00,VWS V14.01,2013-01-19 05:43:00,
2013-01-19 00:48:00,37.0,26.7,24.34,SSW,206,3.0,11.0,66,0.00,,SKC,0.00,VWS V14.01,2013-01-19 05:48:00,
2013-01-19 00:53:00,37.1,26.8,24.34,WSW,249,7.0,9.0,66,0.00,,SKC,0.00,VWS V14.01,2013-01-19 05:53:00,
2013-01-19 00:58:00,37.0,26.7,24.34,South,187,12.0,12.0,66,0.00,,SKC,0.00,VWS V14.01,2013-01-19 05:58:00,
2013-01-19 01:03:00,37.1,26.8,24.34,SSW,207,6.0,7.0,66,0.00,,SKC,0.00,VWS V14.01,2013-01-19 06:03:00,
2013-01-19 01:08:00,37.0,26.7,24.30,SSW,207,5.0,9.0,66,0.00,,SKC,0.00,VWS V14.01,2013-01-19 06:08:00,
2013-01-19 01:13:00,37.1,26.8,24.17,SW,223,7.0,13.0,66,0.00,,SKC,0.00,VWS V14.01,2013-01-19 06:13:00,
2013-01-19 01:18:00,37.0,26.7,24.17,SW,223,4.0,8.0,66,0.00,,SKC,0.00,VWS V14.01,2013-01-19 06:18:00,
2013-01-19 01:23:00,37.0,26.7,24.17,South,173,7.0,7.0,66,0.00,,SKC,0.00,VWS V14.01,2013-01-19 06:23:00,
2013-01-19 01:28:00,37.0,26.3,24.17,South,186,3.0,6.0,65,0.00,,SKC,0.00,VWS V14.01,2013-01-19 06:28:00,
2013-01-19 01:33:00,36.9,26.2,24.36,SSW,213,11.0,11.0,65,0.00,,SKC,0.00,VWS V14.01,2013-01-19 06:33:00,
2013-01-19 01:38:00,37.0,26.7,24.38,SW,228,6.0,6.0,66,0.00,,SKC,0.00,VWS V14.01,2013-01-19 06:38:00,
2013-01-19 01:43:00,37.1,26.4,24.38,SSE,163,4.0,5.0,65,0.00,,SKC,0.00,VWS V14.01,2013-01-19 06:43:00,
2013-01-19 01:48:00,37.0,26.3,24.38,SW,214,3.0,4.0,65,0.00,,SKC,0.00,VWS V14.01,2013-01-19 06:48:00,
2013-01-19 01:53:00,37.0,26.3,24.39,WSW,238,9.0,9.0,65,0.00,,SKC,0.00,VWS V14.01,2013-01-19 06:53:00,
2013-01-19 01:58:00,37.0,26.3,24.39,South,190,5.0,6.0,65,0.00,,SKC,0.00,VWS V14.01,2013-01-19 06:58:00,
2013-01-19 02:03:00,37.0,26.3,24.39,SW,223,11.0,11.0,65,0.00,,SKC,0.00,VWS V14.01,2013-01-19 07:03:00,
2013-01-19 02:08:00,37.2,26.5,24.39,SW,216,13.0,13.0,65,0.00,,SKC,0.00,VWS V14.01,2013-01-19 07:08:00,
2013-01-19 02:13:00,37.2,26.2,24.29,SW,223,8.0,8.0,64,0.00,,SKC,0.00,VWS V14.01,2013-01-19 07:13:00,
2013-01-19 02:18:00,37.1,26.4,24.29,SSW,194,3.0,5.0,65,0.00,,SKC,0.00,VWS V14.01,2013-01-19 07:18:00,
2013-01-19 02:23:00,37.1,26.4,24.46,SSW,192,4.0,19.0,65,0.00,,SKC,0.00,VWS V14.01,2013-01-19 07:23:00,
2013-01-19 02:28:00,37.1,26.1,24.46,SSW,213,5.0,10.0,64,0.00,,SKC,0.00,VWS V14.01,2013-01-19 07:28:00,
2013-01-19 02:33:00,37.1,26.1,24.46,SSW,200,10.0,11.0,64,0.00,,SKC,0.00,VWS V14.01,2013-01-19 07:33:00,
2013-01-19 02:38:00,37.0,26.3,24.23,SW,218,11.0,15.0,65,0.00,,SKC,0.00,VWS V14.01,2013-01-19 07:38:00,
2013-01-19 02:43:00,36.9,26.2,24.41,SSW,204,2.0,11.0,65,0.00,,SKC,0.00,VWS V14.01,2013-01-19 07:43:00,
2013-01-19 02:48:00,36.9,26.2,24.41,SW,229,5.0,9.0,65,0.00,,SKC,0.00,VWS V14.01,2013-01-19 07:48:00,
2013-01-19 02:53:00,36.9,26.2,24.41,South,176,10.0,10.0,65,0.00,,SKC,0.00,VWS V14.01,2013-01-19 07:53:00,
2013-01-19 02:58:00,36.9,26.2,24.41,SSW,205,12.0,12.0,65,0.00,,SKC,0.00,VWS V14.01,2013-01-19 07:58:00,
2013-01-19 03:03:00,36.9,25.9,24.41,SSW,209,10.0,10.0,64,0.00,,SKC,0.00,VWS V14.01,2013-01-19 08:03:00,
2013-01-19 03:08:00,36.9,26.2,24.17,SSW,213,8.0,11.0,65,0.00,,SKC,0.00,VWS V14.01,2013-01-19 08:08:00,
2013-01-19 03:13:00,36.8,26.1,24.21,SSW,205,11.0,11.0,65,0.00,,SKC,0.00,VWS V14.01,2013-01-19 08:13:00,
2013-01-19 03:18:00,36.9,25.9,24.21,SSW,207,5.0,11.0,64,0.00,,SKC,0.00,VWS V14.01,2013-01-19 08:18:00,
2013-01-19 03:23:00,36.8,25.8,24.21,WSW,252,2.0,3.0,64,0.00,,SKC,0.00,VWS V14.01,2013-01-19 08:23:00,
2013-01-19 03:28:00,36.7,26.1,24.20,South,180,7.0,7.0,65,0.00,,SKC,0.00,VWS V14.01,2013-01-19 08:28:00,
2013-01-19 03:33:00,36.8,25.8,24.20,SSW,202,6.0,10.0,64,0.00,,SKC,0.00,VWS V14.01,2013-01-19 08:33:00,
2013-01-19 03:38:00,36.9,25.9,24.18,SSW,208,10.0,14.0,64,0.00,,SKC,0.00,VWS V14.01,2013-01-19 08:38:00,
2013-01-19 03:43:00,36.8,25.8,24.18,South,182,6.0,7.0,64,0.00,,SKC,0.00,VWS V14.01,2013-01-19 08:43:00,
2013-01-19 03:48:00,36.9,25.5,24.18,SW,217,5.0,11.0,63,0.00,,SKC,0.00,VWS V14.01,2013-01-19 08:48:00,
2013-01-19 03:53:00,37.0,25.6,24.18,SSW,205,4.0,4.0,63,0.00,,SKC,0.00,VWS V14.01,2013-01-19 08:53:00,
2013-01-19 03:58:00,37.0,25.6,24.18,SW,227,8.0,8.0,63,0.00,,SKC,0.00,VWS V14.01,2013-01-19 08:58:00,
2013-01-19 04:03:00,37.0,25.6,24.51,SSW,194,4.0,7.0,63,0.00,,SKC,0.00,VWS V14.01,2013-01-19 09:03:00,
2013-01-19 04:08:00,36.9,25.1,24.51,SSW,202,10.0,10.0,62,0.00,,SKC,0.00,VWS V14.01,2013-01-19 09:08:00,
2013-01-19 04:13:00,37.1,25.3,24.51,SW,218,4.0,11.0,62,0.00,,SKC,0.00,VWS V14.01,2013-01-19 09:13:00,
2013-01-19 04:18:00,37.1,25.3,24.51,SW,228,9.0,9.0,62,0.00,,SKC,0.00,VWS V14.01,2013-01-19 09:18:00,
2013-01-19 04:23:00,37.2,25.0,24.51,SW,218,6.0,12.0,61,0.00,,SKC,0.00,VWS V14.01,2013-01-19 09:23:00,
2013-01-19 04:28:00,37.1,24.9,24.47,SSW,206,7.0,11.0,61,0.00,,SKC,0.00,VWS V14.01,2013-01-19 09:28:00,
2013-01-19 04:33:00,37.2,25.0,24.47,SSW,203,2.0,7.0,61,0.00,,SKC,0.00,VWS V14.01,2013-01-19 09:33:00,
2013-01-19 04:38:00,37.3,25.1,24.47,SW,232,0.0,1.0,61,0.00,,SKC,0.00,VWS V14.01,2013-01-19 09:38:00,
2013-01-19 04:43:00,37.2,25.0,24.44,SSW,209,5.0,9.0,61,0.00,,SKC,0.00,VWS V14.01,2013-01-19 09:43:00,
2013-01-19 04:48:00,37.1,24.9,24.56,SW,215,3.0,5.0,61,0.00,,SKC,0.00,VWS V14.01,2013-01-19 09:48:00,
2013-01-19 04:53:00,37.2,25.0,24.50,SSW,209,8.0,15.0,61,0.00,,SKC,0.00,VWS V14.01,2013-01-19 09:53:00,
2013-01-19 04:58:00,37.2,25.0,24.49,SSW,212,6.0,7.0,61,0.00,,SKC,0.00,VWS V14.01,2013-01-19 09:58:00,
2013-01-19 05:03:00,37.2,25.0,24.40,SSW,202,4.0,12.0,61,0.00,,SKC,0.00,VWS V14.01,2013-01-19 10:03:00,
2013-01-19 05:08:00,37.1,24.9,24.40,SSW,211,4.0,8.0,61,0.00,,SKC,0.00,VWS V14.01,2013-01-19 10:08:00,
2013-01-19 05:13:00,37.1,24.9,24.40,WSW,240,3.0,5.0,61,0.00,,SKC,0.00,VWS V14.01,2013-01-19 10:13:00,
2013-01-19 05:18:00,37.1,24.9,24.45,SSW,211,3.0,15.0,61,0.00,,SKC,0.00,VWS V14.01,2013-01-19 10:18:00,
2013-01-19 05:23:00,37.1,24.9,24.45,SSW,195,6.0,6.0,61,0.00,,SKC,0.00,VWS V14.01,2013-01-19 10:23:00,
2013-01-19 05:28:00,37.1,24.9,24.45,SW,214,13.0,13.0,61,0.00,,SKC,0.00,VWS V14.01,2013-01-19 10:28:00,
2013-01-19 05:33:00,37.0,24.8,24.45,SSW,196,5.0,6.0,61,0.00,,SKC,0.00,VWS V14.01,2013-01-19 10:33:00,
2013-01-19 05:38:00,37.0,24.8,24.45,SW,229,2.0,9.0,61,0.00,,SKC,0.00,VWS V14.01,2013-01-19 10:38:00,
2013-01-19 05:43:00,37.0,24.8,24.45,SSW,207,3.0,5.0,61,0.00,,SKC,0.00,VWS V14.01,2013-01-19 10:43:00,
2013-01-19 05:48:00,37.0,24.8,24.45,WSW,254,10.0,10.0,61,0.00,,SKC,0.00,VWS V14.01,2013-01-19 10:48:00,
2013-01-19 05:53:00,37.0,24.8,24.45,SSW,202,10.0,10.0,61,0.00,,SKC,0.00,VWS V14.01,2013-01-19 10:53:00,
2013-01-19 05:58:00,36.9,25.1,24.43,SSW,198,1.0,6.0,62,0.00,,SKC,0.00,VWS V14.01,2013-01-19 10:58:00,
2013-01-19 06:03:00,37.0,25.2,24.38,SSW,210,3.0,6.0,62,0.00,,SKC,0.00,VWS V14.01,2013-01-19 11:03:00,
2013-01-19 06:08:00,37.0,24.8,24.52,SW,223,9.0,9.0,61,0.00,,SKC,0.00,VWS V14.01,2013-01-19 11:08:00,
2013-01-19 06:13:00,37.0,24.8,24.44,SSW,206,6.0,9.0,61,0.00,,SKC,0.00,VWS V14.01,2013-01-19 11:13:00,
2013-01-19 07:47:00,36.9,25.9,24.49,South,176,10.0,23.0,64,0.00,,SKC,0.00,VWS V14.01,2013-01-19 12:47:00,
2013-01-19 07:48:00,37.0,26.0,24.49,SW,230,6.0,15.0,64,0.00,,SKC,0.00,VWS V14.01,2013-01-19 12:48:00,
2013-01-19 07:53:00,37.1,26.1,24.50,SSW,210,4.0,6.0,64,0.00,,SKC,0.00,VWS V14.01,2013-01-19 12:53:00,
2013-01-19 07:58:00,37.1,26.1,24.50,South,191,10.0,10.0,64,0.00,,SKC,0.00,VWS V14.01,2013-01-19 12:58:00,
2013-01-19 08:03:00,37.1,26.1,24.38,SW,227,9.0,9.0,64,0.00,,SKC,0.00,VWS V14.01,2013-01-19 13:03:00,
2013-01-19 08:08:00,37.2,26.2,24.38,South,183,3.0,6.0,64,0.00,,SKC,0.00,VWS V14.01,2013-01-19 13:08:00,
2013-01-19 08:13:00,37.2,26.2,24.38,SSW,196,4.0,6.0,64,0.00,,SKC,0.00,VWS V14.01,2013-01-19 13:13:00,
2013-01-19 08:18:00,37.3,26.3,24.35,WSW,247,1.0,4.0,64,0.00,,SKC,0.00,VWS V14.01,2013-01-19 13:18:00,
2013-01-19 08:23:00,37.3,26.3,24.53,SW,236,6.0,14.0,64,0.00,,SKC,0.00,VWS V14.01,2013-01-19 13:23:00,
2013-01-19 08:28:00,37.5,26.5,24.45,SW,223,5.0,10.0,64,0.00,,SKC,0.00,VWS V14.01,2013-01-19 13:28:00,
2013-01-19 08:33:00,37.6,26.5,24.45,SSW,200,6.0,10.0,64,0.00,,SKC,0.00,VWS V14.01,2013-01-19 13:33:00,
2013-01-19 08:38:00,37.8,26.4,24.45,SW,221,7.0,7.0,63,0.00,,SKC,0.00,VWS V14.01,2013-01-19 13:38:00,
2013-01-19 08:43:00,38.0,26.5,24.45,SSW,194,12.0,12.0,63,0.00,,SKC,0.00,VWS V14.01,2013-01-19 13:43:00,
2013-01-19 08:48:00,38.1,26.6,24.45,SSW,202,4.0,10.0,63,0.00,,SKC,0.00,VWS V14.01,2013-01-19 13:48:00,
2013-01-19 08:53:00,38.3,26.8,24.54,South,188,6.0,13.0,63,0.00,,SKC,0.00,VWS V14.01,2013-01-19 13:53:00,
2013-01-19 08:58:00,38.4,26.9,24.54,SW,219,11.0,11.0,63,0.00,,SKC,0.00,VWS V14.01,2013-01-19 13:58:00,
2013-01-19 09:03:00,38.6,27.1,24.54,SSW,209,3.0,7.0,63,0.00,,SKC,0.00,VWS V14.01,2013-01-19 14:03:00,
2013-01-19 09:08:00,38.8,26.9,24.54,SW,219,10.0,10.0,62,0.00,,SKC,0.00,VWS V14.01,2013-01-19 14:08:00,
2013-01-19 09:13:00,39.0,27.1,24.54,SSW,213,6.0,6.0,62,0.00,,SKC,0.00,VWS V14.01,2013-01-19 14:13:00,
2013-01-19 09:18:00,39.1,27.2,24.54,SSW,197,5.0,11.0,62,0.00,,SKC,0.00,VWS V14.01,2013-01-19 14:18:00,
2013-01-19 09:23:00,39.3,27.4,24.53,SSW,211,11.0,11.0,62,0.00,,SKC,0.00,VWS V14.01,2013-01-19 14:23:00,
2013-01-19 09:28:00,39.5,27.6,24.53,SSW,202,9.0,15.0,62,0.00,,SKC,0.00,VWS V14.01,2013-01-19 14:28:00,
2013-01-19 09:33:00,39.7,27.4,24.53,SSW,197,2.0,5.0,61,0.00,,SKC,0.00,VWS V14.01,2013-01-19 14:33:00,
2013-01-19 09:38:00,40.0,27.6,24.53,SSW,209,12.0,12.0,61,0.00,,SKC,0.00,VWS V14.01,2013-01-19 14:38:00,
2013-01-19 09:43:00,40.2,27.4,24.45,SW,215,6.0,17.0,60,0.00,,SKC,0.00,VWS V14.01,2013-01-19 14:43:00,
2013-01-19 09:48:00,40.4,27.6,24.46,South,180,10.0,15.0,60,0.00,,SKC,0.00,VWS V14.01,2013-01-19 14:48:00,
2013-01-19 09:53:00,40.6,27.8,24.51,SSW,211,9.0,15.0,60,0.00,,SKC,0.00,VWS V14.01,2013-01-19 14:53:00,
2013-01-19 09:58:00,40.9,27.7,24.51,West,267,14.0,14.0,59,0.00,,SKC,0.00,VWS V14.01,2013-01-19 14:58:00,
2013-01-19 10:03:00,41.0,29.0,24.55,SSW,210,5.0,10.0,62,0.00,,SKC,0.00,VWS V14.01,2013-01-19 15:03:00,
2013-01-19 10:08:00,41.2,28.0,24.55,SSW,194,4.0,11.0,59,0.00,,SKC,0.00,VWS V14.01,2013-01-19 15:08:00,
2013-01-19 10:13:00,41.3,27.6,24.55,South,181,3.0,9.0,58,0.00,,SKC,0.00,VWS V14.01,2013-01-19 15:13:00,
2013-01-19 10:18:00,41.6,27.9,24.55,SW,234,6.0,17.0,58,0.00,,SKC,0.00,VWS V14.01,2013-01-19 15:18:00,
2013-01-19 10:23:00,41.6,27.9,24.29,SW,229,5.0,14.0,58,0.00,,SKC,0.00,VWS V14.01,2013-01-19 15:23:00,
2013-01-19 10:28:00,41.8,28.1,24.23,South,174,10.0,10.0,58,0.00,,SKC,0.00,VWS V14.01,2013-01-19 15:28:00,
2013-01-19 10:33:00,42.1,28.4,24.23,South,190,5.0,15.0,58,0.00,,SKC,0.00,VWS V14.01,2013-01-19 15:33:00,
2013-01-19 10:38:00,42.3,28.2,24.28,SSW,200,2.0,6.0,57,0.00,,SKC,0.00,VWS V14.01,2013-01-19 15:38:00,
2013-01-19 10:43:00,42.3,28.6,24.28,SSW,213,4.0,12.0,58,0.00,,SKC,0.00,VWS V14.01,2013-01-19 15:43:00,
2013-01-19 10:48:00,42.6,28.5,24.27,SW,223,14.0,17.0,57,0.00,,SKC,0.00,VWS V14.01,2013-01-19 15:48:00,
2013-01-19 10:53:00,42.7,28.5,24.37,WSW,238,9.0,17.0,57,0.00,,SKC,0.00,VWS V14.01,2013-01-19 15:53:00,
2013-01-19 10:58:00,43.1,28.9,24.37,SW,234,4.0,11.0,57,0.00,,SKC,0.00,VWS V14.01,2013-01-19 15:58:00,
2013-01-19 11:03:00,43.3,29.1,24.26,SW,223,14.0,14.0,57,0.00,,SKC,0.00,VWS V14.01,2013-01-19 16:03:00,
2013-01-19 11:08:00,43.6,29.4,24.32,SSW,212,13.0,13.0,57,0.00,,SKC,0.00,VWS V14.01,2013-01-19 16:08:00,
2013-01-19 11:13:00,43.6,29.0,24.22,WSW,256,11.0,20.0,56,0.00,,SKC,0.00,VWS V14.01,2013-01-19 16:13:00,
2013-01-19 11:18:00,43.8,29.1,24.27,SW,230,6.0,13.0,56,0.00,,SKC,0.00,VWS V14.01,2013-01-19 16:18:00,
2013-01-19 11:23:00,44.0,29.3,24.26,SSW,205,9.0,13.0,56,0.00,,SKC,0.00,VWS V14.01,2013-01-19 16:23:00,
2013-01-19 11:28:00,44.1,29.4,24.26,SW,227,8.0,19.0,56,0.00,,SKC,0.00,VWS V14.01,2013-01-19 16:28:00,
2013-01-19 11:33:00,44.2,29.5,24.24,South,184,9.0,14.0,56,0.00,,SKC,0.00,VWS V14.01,2013-01-19 16:33:00,
2013-01-19 11:38:00,44.3,29.2,24.24,SW,227,7.0,8.0,55,0.00,,SKC,0.00,VWS V14.01,2013-01-19 16:38:00,
2013-01-19 11:43:00,44.5,29.8,24.24,SSW,192,3.0,6.0,56,0.00,,SKC,0.00,VWS V14.01,2013-01-19 16:43:00,
2013-01-19 11:48:00,45.1,29.9,24.23,SSW,211,9.0,23.0,55,0.00,,SKC,0.00,VWS V14.01,2013-01-19 16:48:00,
2013-01-19 11:53:00,45.1,29.9,24.24,SSW,202,17.0,17.0,55,0.00,,SKC,0.00,VWS V14.01,2013-01-19 16:53:00,
2013-01-19 11:58:00,45.5,30.3,24.23,West,260,13.0,17.0,55,0.00,,SKC,0.00,VWS V14.01,2013-01-19 16:58:00,
2013-01-19 12:03:00,45.5,29.8,24.23,SSW,200,15.0,18.0,54,0.00,,SKC,0.00,VWS V14.01,2013-01-19 17:03:00,
2013-01-19 12:08:00,45.7,30.0,24.25,SW,218,10.0,21.0,54,0.00,,SKC,0.00,VWS V14.01,2013-01-19 17:08:00,
2013-01-19 12:13:00,45.8,30.1,24.24,SW,215,5.0,10.0,54,0.00,,SKC,0.00,VWS V14.01,2013-01-19 17:13:00,
2013-01-19 12:19:00,46.3,30.6,24.26,WSW,246,10.0,20.0,54,0.00,,SKC,0.00,VWS V14.01,2013-01-19 17:19:00,
2013-01-19 12:24:00,46.4,30.7,24.25,WSW,241,9.0,20.0,54,0.00,,SKC,0.00,VWS V14.01,2013-01-19 17:24:00,
2013-01-19 12:29:00,46.6,30.9,24.24,SSW,213,8.0,12.0,54,0.00,,SKC,0.00,VWS V14.01,2013-01-19 17:29:00,
2013-01-19 12:34:00,47.2,31.0,24.24,SW,214,10.0,10.0,53,0.00,,SKC,0.00,VWS V14.01,2013-01-19 17:34:00,
2013-01-19 12:39:00,47.5,30.8,24.25,SSW,208,11.0,18.0,52,0.00,,SKC,0.00,VWS V14.01,2013-01-19 17:39:00,
2013-01-19 12:44:00,47.4,30.7,24.24,WSW,238,10.0,21.0,52,0.00,,SKC,0.00,VWS V14.01,2013-01-19 17:44:00,
2013-01-19 12:49:00,47.6,30.9,24.24,SSW,198,6.0,17.0,52,0.00,,SKC,0.00,VWS V14.01,2013-01-19 17:49:00,
2013-01-19 12:54:00,47.8,30.6,24.24,SW,234,2.0,16.0,51,0.00,,SKC,0.00,VWS V14.01,2013-01-19 17:54:00,
2013-01-19 12:59:00,47.9,31.1,24.26,SSW,199,12.0,15.0,52,0.00,,SKC,0.00,VWS V14.01,2013-01-19 17:59:00,
2013-01-19 13:04:00,48.1,30.8,24.25,SSW,210,7.0,21.0,51,0.00,,SKC,0.00,VWS V14.01,2013-01-19 18:04:00,
2013-01-19 13:09:00,48.1,30.8,24.24,SW,216,17.0,19.0,51,0.00,,SKC,0.00,VWS V14.01,2013-01-19 18:09:00,
2013-01-19 13:14:00,48.3,31.0,24.25,SSW,200,5.0,21.0,51,0.00,,SKC,0.00,VWS V14.01,2013-01-19 18:14:00,
2013-01-19 13:19:00,48.8,31.0,24.24,SW,222,6.0,23.0,50,0.00,,SKC,0.00,VWS V14.01,2013-01-19 18:19:00,
2013-01-19 13:24:00,48.7,31.4,24.24,SW,219,3.0,16.0,51,0.00,,SKC,0.00,VWS V14.01,2013-01-19 18:24:00,
2013-01-19 13:29:00,48.7,30.9,24.26,WSW,245,15.0,24.0,50,0.00,,SKC,0.00,VWS V14.01,2013-01-19 18:29:00,
2013-01-19 13:34:00,48.8,31.0,24.23,SSE,161,7.0,17.0,50,0.00,,SKC,0.00,VWS V14.01,2013-01-19 18:34:00,
2013-01-19 13:39:00,49.1,31.8,24.26,SSW,199,9.0,21.0,51,0.00,,SKC,0.00,VWS V14.01,2013-01-19 18:39:00,
2013-01-19 13:45:00,49.3,31.5,24.27,SW,221,5.0,18.0,50,0.00,,SKC,0.00,VWS V14.01,2013-01-19 18:45:00,
2013-01-19 13:50:00,49.5,31.6,24.28,SSW,207,2.0,25.0,50,0.00,,SKC,0.00,VWS V14.01,2013-01-19 18:50:00,
2013-01-19 13:55:00,49.8,31.4,24.27,SW,221,16.0,18.0,49,0.00,,SKC,0.00,VWS V14.01,2013-01-19 18:55:00,
2013-01-19 14:00:00,49.9,32.0,24.23,SSW,209,12.0,17.0,50,0.00,,SKC,0.00,VWS V14.01,2013-01-19 19:00:00,
2013-01-19 14:05:00,50.2,31.8,24.23,SW,229,7.0,18.0,49,0.00,,SKC,0.00,VWS V14.01,2013-01-19 19:05:00,
2013-01-19 14:10:00,50.3,32.4,24.22,SW,219,13.0,17.0,50,0.00,,SKC,0.00,VWS V14.01,2013-01-19 19:10:00,
2013-01-19 14:15:00,50.3,31.9,24.22,SW,218,2.0,24.0,49,0.00,,SKC,0.00,VWS V14.01,2013-01-19 19:15:00,
2013-01-19 14:20:00,50.4,31.5,24.26,SSE,167,10.0,17.0,48,0.00,,SKC,0.00,VWS V14.01,2013-01-19 19:20:00,
2013-01-19 14:25:00,50.6,31.6,24.26,SW,234,6.0,19.0,48,0.00,,SKC,0.00,VWS V14.01,2013-01-19 19:25:00,
2013-01-19 14:30:00,50.8,32.3,24.23,SW,219,5.0,27.0,49,0.00,,SKC,0.00,VWS V14.01,2013-01-19 19:30:00,
2013-01-19 14:35:00,51.2,32.7,24.23,South,183,7.0,10.0,49,0.00,,SKC,0.00,VWS V14.01,2013-01-19 19:35:00,
2013-01-19 14:40:00,51.2,32.2,24.26,SW,232,9.0,22.0,48,0.00,,SKC,0.00,VWS V14.01,2013-01-19 19:40:00,
2013-01-19 14:45:00,51.2,32.7,24.23,South,172,3.0,17.0,49,0.00,,SKC,0.00,VWS V14.01,2013-01-19 19:45:00,
2013-01-19 14:50:00,51.3,32.3,24.20,SSW,200,8.0,25.0,48,0.00,,SKC,0.00,VWS V14.01,2013-01-19 19:50:00,
2013-01-19 14:55:00,51.4,32.4,24.27,SW,215,5.0,17.0,48,0.00,,SKC,0.00,VWS V14.01,2013-01-19 19:55:00,
2013-01-19 15:01:00,51.5,32.5,24.28,SSW,202,12.0,26.0,48,0.00,,SKC,0.00,VWS V14.01,2013-01-19 20:01:00,
2013-01-19 15:06:00,51.6,32.6,24.28,SE,132,6.0,20.0,48,0.00,,SKC,0.00,VWS V14.01,2013-01-19 20:06:00,
2013-01-19 15:11:00,51.7,32.7,24.25,SSW,211,13.0,19.0,48,0.00,,SKC,0.00,VWS V14.01,2013-01-19 20:11:00,
2013-01-19 15:16:00,51.7,33.2,24.22,WSW,252,9.0,24.0,49,0.00,,SKC,0.00,VWS V14.01,2013-01-19 20:16:00,
2013-01-19 15:21:00,51.7,33.2,24.23,SW,223,14.0,19.0,49,0.00,,SKC,0.00,VWS V14.01,2013-01-19 20:21:00,
2013-01-19 15:27:00,51.9,33.4,24.25,SW,230,10.0,18.0,49,0.00,,SKC,0.00,VWS V14.01,2013-01-19 20:27:00,
2013-01-19 15:32:00,51.8,33.3,24.25,SSW,198,6.0,19.0,49,0.00,,SKC,0.00,VWS V14.01,2013-01-19 20:32:00,
2013-01-19 15:37:00,51.9,33.4,24.26,WSW,242,12.0,16.0,49,0.00,,SKC,0.00,VWS V14.01,2013-01-19 20:37:00,
2013-01-19 15:42:00,51.9,33.4,24.26,WSW,254,8.0,21.0,49,0.00,,SKC,0.00,VWS V14.01,2013-01-19 20:42:00,
2013-01-19 15:47:00,51.9,33.9,24.26,SW,232,4.0,13.0,50,0.00,,SKC,0.00,VWS V14.01,2013-01-19 20:47:00,
2013-01-19 15:52:00,51.8,33.3,24.24,SSW,212,10.0,27.0,49,0.00,,SKC,0.00,VWS V14.01,2013-01-19 20:52:00,
2013-01-19 15:57:00,51.8,33.3,24.26,SSW,211,4.0,15.0,49,0.00,,SKC,0.00,VWS V14.01,2013-01-19 20:57:00,
2013-01-19 16:02:00,51.9,33.4,24.25,South,181,10.0,18.0,49,0.00,,SKC,0.00,VWS V14.01,2013-01-19 21:02:00,
2013-01-19 16:08:00,51.9,33.4,24.24,SW,219,3.0,15.0,49,0.00,,SKC,0.00,VWS V14.01,2013-01-19 21:08:00,
2013-01-19 16:13:00,51.9,33.4,24.28,SW,215,8.0,14.0,49,0.00,,SKC,0.00,VWS V14.01,2013-01-19 21:13:00,
2013-01-19 16:18:00,51.8,33.3,24.23,SW,226,9.0,13.0,49,0.00,,SKC,0.00,VWS V14.01,2013-01-19 21:18:00,
2013-01-19 16:23:00,51.8,33.8,24.32,SSW,207,5.0,9.0,50,0.00,,SKC,0.00,VWS V14.01,2013-01-19 21:23:00,
2013-01-19 16:28:00,51.7,34.2,24.32,SW,218,7.0,13.0,51,0.00,,SKC,0.00,VWS V14.01,2013-01-19 21:28:00,
2013-01-19 16:34:00,51.6,33.6,24.24,SSW,197,5.0,16.0,50,0.00,,SKC,0.00,VWS V14.01,2013-01-19 21:34:00,
2013-01-19 16:39:00,51.5,34.0,24.26,SW,214,6.0,15.0,51,0.00,,SKC,0.00,VWS V14.01,2013-01-19 21:39:00,
2013-01-19 16:44:00,51.4,33.9,24.24,West,262,7.0,9.0,51,0.00,,SKC,0.00,VWS V14.01,2013-01-19 21:44:00,
2013-01-19 16:49:00,51.4,33.9,24.25,SW,220,5.0,17.0,51,0.00,,SKC,0.00,VWS V14.01,2013-01-19 21:49:00,
2013-01-19 16:55:00,51.2,34.2,24.27,SSW,204,3.0,11.0,52,0.00,,SKC,0.00,VWS V14.01,2013-01-19 21:55:00,
2013-01-19 17:00:00,51.0,34.0,24.27,SSW,208,5.0,5.0,52,0.00,,SKC,0.00,VWS V14.01,2013-01-19 22:00:00,
2013-01-19 17:05:00,50.6,34.1,24.22,SSW,207,4.0,9.0,53,0.00,,SKC,0.00,VWS V14.01,2013-01-19 22:05:00,
2013-01-19 17:11:00,50.3,34.8,24.28,SSW,211,2.0,9.0,55,0.00,,SKC,0.00,VWS V14.01,2013-01-19 22:11:00,
2013-01-19 17:16:00,49.9,34.8,24.26,SW,214,3.0,5.0,56,0.00,,SKC,0.00,VWS V14.01,2013-01-19 22:16:00,
2013-01-19 17:21:00,49.6,35.0,24.25,SSW,211,2.0,9.0,57,0.00,,SKC,0.00,VWS V14.01,2013-01-19 22:21:00,
2013-01-19 17:26:00,49.3,34.7,24.24,WSW,240,3.0,8.0,57,0.00,,SKC,0.00,VWS V14.01,2013-01-19 22:26:00,
2013-01-19 17:31:00,49.1,34.5,24.24,SW,219,2.0,11.0,57,0.00,,SKC,0.00,VWS V14.01,2013-01-19 22:31:00,
2013-01-19 17:36:00,49.0,34.5,24.25,SSW,198,4.0,7.0,57,0.00,,SKC,0.00,VWS V14.01,2013-01-19 22:36:00,
2013-01-19 17:41:00,48.8,34.3,24.24,SW,214,3.0,10.0,57,0.00,,SKC,0.00,VWS V14.01,2013-01-19 22:41:00,
2013-01-19 17:46:00,48.8,34.3,24.27,SW,215,3.0,13.0,57,0.00,,SKC,0.00,VWS V14.01,2013-01-19 22:46:00,
2013-01-19 17:52:00,48.7,34.2,24.27,SSW,196,1.0,10.0,57,0.00,,SKC,0.00,VWS V14.01,2013-01-19 22:52:00,
2013-01-19 17:57:00,48.6,34.1,24.26,South,189,7.0,7.0,57,0.00,,SKC,0.00,VWS V14.01,2013-01-19 22:57:00,
2013-01-19 18:02:00,48.5,34.4,24.25,WSW,241,6.0,11.0,58,0.00,,SKC,0.00,VWS V14.01,2013-01-19 23:02:00,
2013-01-19 18:07:00,48.3,34.2,24.24,South,172,1.0,11.0,58,0.00,,SKC,0.00,VWS V14.01,2013-01-19 23:07:00,
2013-01-19 18:12:00,48.0,34.4,24.25,SSW,213,1.0,9.0,59,0.00,,SKC,0.00,VWS V14.01,2013-01-19 23:12:00,
2013-01-19 18:17:00,47.7,34.1,24.24,SSW,209,4.0,7.0,59,0.00,,SKC,0.00,VWS V14.01,2013-01-19 23:17:00,
2013-01-19 18:22:00,47.5,34.3,24.24,SSW,205,2.0,9.0,60,0.00,,SKC,0.00,VWS V14.01,2013-01-19 23:22:00,
2013-01-19 18:28:00,47.4,34.2,24.27,SSW,194,3.0,3.0,60,0.00,,SKC,0.00,VWS V14.01,2013-01-19 23:28:00,
2013-01-19 18:33:00,47.3,34.1,24.25,South,177,2.0,2.0,60,0.00,,SKC,0.00,VWS V14.01,2013-01-19 23:33:00,
2013-01-19 18:38:00,47.3,34.1,24.26,South,184,3.0,6.0,60,0.00,,SKC,0.00,VWS V14.01,2013-01-19 23:38:00,
2013-01-19 18:43:00,47.2,34.0,24.26,WSW,248,12.0,12.0,60,0.00,,SKC,0.00,VWS V14.01,2013-01-19 23:43:00,
2013-01-19 18:48:00,47.0,33.8,24.25,SW,217,0.0,2.0,60,0.00,,SKC,0.00,VWS V14.01,2013-01-19 23:48:00,
2013-01-19 18:53:00,46.9,33.8,24.26,SSW,198,2.0,9.0,60,0.00,,SKC,0.00,VWS V14.01,2013-01-19 23:53:00,
2013-01-19 18:59:00,46.8,34.1,24.27,SSW,196,5.0,9.0,61,0.00,,SKC,0.00,VWS V14.01,2013-01-19 23:59:00,
2013-01-19 19:04:00,46.7,34.0,24.26,SSW,207,3.0,11.0,61,0.00,,SKC,0.00,VWS V14.01,2013-01-20 00:04:00,
2013-01-19 19:09:00,46.5,33.8,24.27,SSW,204,2.0,13.0,61,0.00,,SKC,0.00,VWS V14.01,2013-01-20 00:09:00,
2013-01-19 19:14:00,46.4,34.1,24.25,SSW,199,3.0,13.0,62,0.00,,SKC,0.00,VWS V14.01,2013-01-20 00:14:00,
2013-01-19 19:19:00,46.4,34.1,24.27,SSW,207,9.0,11.0,62,0.00,,SKC,0.00,VWS V14.01,2013-01-20 00:19:00,
2013-01-19 19:24:00,46.5,33.8,24.24,SSW,194,3.0,7.0,61,0.00,,SKC,0.00,VWS V14.01,2013-01-20 00:24:00,
2013-01-19 19:29:00,46.5,34.2,24.26,SW,221,3.0,6.0,62,0.00,,SKC,0.00,VWS V14.01,2013-01-20 00:29:00,
2013-01-19 19:34:00,46.4,34.1,24.26,West,265,7.0,13.0,62,0.00,,SKC,0.00,VWS V14.01,2013-01-20 00:34:00,
2013-01-19 19:39:00,46.5,34.2,24.26,WSW,244,5.0,10.0,62,0.00,,SKC,0.00,VWS V14.01,2013-01-20 00:39:00,
2013-01-19 19:44:00,46.4,34.1,24.23,SSW,207,1.0,12.0,62,0.00,,SKC,0.00,VWS V14.01,2013-01-20 00:44:00,
2013-01-19 19:49:00,46.3,34.0,24.25,SSW,198,2.0,5.0,62,0.00,,SKC,0.00,VWS V14.01,2013-01-20 00:49:00,
2013-01-19 19:54:00,46.1,34.2,24.24,SSW,205,4.0,7.0,63,0.00,,SKC,0.00,VWS V14.01,2013-01-20 00:54:00,
2013-01-19 19:59:00,45.9,34.0,24.22,SSW,206,4.0,12.0,63,0.00,,SKC,0.00,VWS V14.01,2013-01-20 00:59:00,
2013-01-19 20:04:00,45.9,34.0,24.24,SW,229,5.0,11.0,63,0.00,,SKC,0.00,VWS V14.01,2013-01-20 01:04:00,
2013-01-19 20:09:00,46.1,34.2,24.23,SW,229,1.0,9.0,63,0.00,,SKC,0.00,VWS V14.01,2013-01-20 01:09:00,
2013-01-19 20:14:00,46.0,34.1,24.24,SW,224,3.0,4.0,63,0.00,,SKC,0.00,VWS V14.01,2013-01-20 01:14:00,
2013-01-19 20:19:00,45.8,34.3,24.23,WSW,245,6.0,7.0,64,0.00,,SKC,0.00,VWS V14.01,2013-01-20 01:19:00,
2013-01-19 20:25:00,45.8,34.3,24.26,SW,236,6.0,11.0,64,0.00,,SKC,0.00,VWS V14.01,2013-01-20 01:25:00,
2013-01-19 20:30:00,45.8,34.3,24.24,SW,214,3.0,7.0,64,0.00,,SKC,0.00,VWS V14.01,2013-01-20 01:30:00,
2013-01-19 20:35:00,45.7,34.2,24.24,SSW,200,0.0,6.0,64,0.00,,SKC,0.00,VWS V14.01,2013-01-20 01:35:00,
2013-01-19 20:40:00,45.6,34.5,24.23,SW,217,1.0,8.0,65,0.00,,SKC,0.00,VWS V14.01,2013-01-20 01:40:00,
2013-01-19 20:45:00,45.4,34.3,24.24,SSW,212,6.0,11.0,65,0.00,,SKC,0.00,VWS V14.01,2013-01-20 01:45:00,
2013-01-19 20:51:00,45.3,34.2,24.28,SW,214,4.0,11.0,65,0.00,,SKC,0.00,VWS V14.01,2013-01-20 01:51:00,
2013-01-19 20:56:00,45.2,34.2,24.26,SSW,204,2.0,11.0,65,0.00,,SKC,0.00,VWS V14.01,2013-01-20 01:56:00,
2013-01-19 21:01:00,45.1,34.4,24.25,SSW,207,3.0,12.0,66,0.00,,SKC,0.00,VWS V14.01,2013-01-20 02:01:00,
2013-01-19 21:06:00,45.1,34.4,24.27,SW,216,3.0,13.0,66,0.00,,SKC,0.00,VWS V14.01,2013-01-20 02:06:00,
2013-01-19 21:12:00,45.1,34.4,24.26,South,184,6.0,9.0,66,0.00,,SKC,0.00,VWS V14.01,2013-01-20 02:12:00,
2013-01-19 21:17:00,45.1,34.4,24.26,SSW,195,2.0,10.0,66,0.00,,SKC,0.00,VWS V14.01,2013-01-20 02:17:00,
2013-01-19 21:22:00,44.9,34.2,24.25,SSW,213,2.0,7.0,66,0.00,,SKC,0.00,VWS V14.01,2013-01-20 02:22:00,
2013-01-19 21:28:00,44.9,34.6,24.24,WSW,241,0.0,0.0,67,0.00,,SKC,0.00,VWS V14.01,2013-01-20 02:28:00,
2013-01-19 21:33:00,44.8,34.5,24.25,SSW,213,7.0,7.0,67,0.00,,SKC,0.00,VWS V14.01,2013-01-20 02:33:00,
2013-01-19 21:38:00,44.9,34.6,24.27,WSW,238,6.0,9.0,67,0.00,,SKC,0.00,VWS V14.01,2013-01-20 02:38:00,
2013-01-19 21:43:00,45.1,34.8,24.25,WSW,244,0.0,6.0,67,0.00,,SKC,0.00,VWS V14.01,2013-01-20 02:43:00,
2013-01-19 21:48:00,45.1,34.8,24.25,WSW,246,4.0,6.0,67,0.00,,SKC,0.00,VWS V14.01,2013-01-20 02:48:00,
2013-01-19 21:53:00,45.3,35.0,24.26,SW,225,1.0,4.0,67,0.00,,SKC,0.00,VWS V14.01,2013-01-20 02:53:00,
2013-01-19 21:58:00,45.3,35.0,24.25,SW,234,2.0,6.0,67,0.00,,SKC,0.00,VWS V14.01,2013-01-20 02:58:00,
2013-01-19 22:03:00,45.6,35.3,24.23,WSW,252,5.0,5.0,67,0.00,,SKC,0.00,VWS V14.01,2013-01-20 03:03:00,
2013-01-19 22:08:00,45.6,35.3,24.22,SW,216,6.0,11.0,67,0.00,,SKC,0.00,VWS V14.01,2013-01-20 03:08:00,
2013-01-19 22:13:00,45.8,35.5,24.23,WSW,246,6.0,14.0,67,0.00,,SKC,0.00,VWS V14.01,2013-01-20 03:13:00,
2013-01-19 22:19:00,46.1,35.8,24.24,SW,227,3.0,21.0,67,0.00,,SKC,0.00,VWS V14.01,2013-01-20 03:19:00,
2013-01-19 22:23:00,46.3,36.0,24.23,West,262,16.0,17.0,67,0.00,,SKC,0.00,VWS V14.01,2013-01-20 03:23:00,
2013-01-19 22:29:00,46.5,36.2,24.24,WSW,242,8.0,11.0,67,0.00,,SKC,0.00,VWS V14.01,2013-01-20 03:29:00,
2013-01-19 22:34:00,46.5,36.2,24.23,WSW,249,11.0,15.0,67,0.00,,SKC,0.00,VWS V14.01,2013-01-20 03:34:00,
2013-01-19 22:39:00,46.6,36.2,24.22,WSW,245,9.0,13.0,67,0.00,,SKC,0.00,VWS V14.01,2013-01-20 03:39:00,
2013-01-19 22:44:00,47.0,36.6,24.24,WSW,248,13.0,23.0,67,0.00,,SKC,0.00,VWS V14.01,2013-01-20 03:44:00,
2013-01-19 22:49:00,47.1,36.7,24.22,WSW,242,5.0,11.0,67,0.00,,SKC,0.00,VWS V14.01,2013-01-20 03:49:00,
2013-01-19 22:54:00,47.0,36.6,24.25,SW,221,4.0,8.0,67,0.00,,SKC,0.00,VWS V14.01,2013-01-20 03:54:00,
2013-01-19 22:59:00,46.9,36.5,24.25,WSW,245,10.0,10.0,67,0.00,,SKC,0.00,VWS V14.01,2013-01-20 03:59:00,
2013-01-19 23:04:00,46.7,36.7,24.24,SSW,210,7.0,14.0,68,0.00,,SKC,0.00,VWS V14.01,2013-01-20 04:04:00,
2013-01-19 23:09:00,46.7,36.7,24.24,WSW,246,20.0,20.0,68,0.00,,SKC,0.00,VWS V14.01,2013-01-20 04:09:00,
2013-01-19 23:14:00,46.6,36.6,24.27,West,261,10.0,13.0,68,0.00,,SKC,0.00,VWS V14.01,2013-01-20 04:14:00,
2013-01-19 23:19:00,46.4,36.4,24.25,WNW,298,8.0,14.0,68,0.00,,SKC,0.00,VWS V14.01,2013-01-20 04:19:00,
2013-01-19 23:24:00,46.3,36.7,24.23,SW,235,9.0,14.0,69,0.00,,SKC,0.00,VWS V14.01,2013-01-20 04:24:00,
2013-01-19 23:29:00,46.1,36.5,24.23,WSW,257,7.0,15.0,69,0.00,,SKC,0.00,VWS V14.01,2013-01-20 04:29:00,
2013-01-19 23:34:00,46.0,36.4,24.24,West,272,4.0,12.0,69,0.00,,SKC,0.00,VWS V14.01,2013-01-20 04:34:00,
2013-01-19 23:39:00,46.0,36.4,24.26,WSW,252,7.0,21.0,69,0.00,,SKC,0.00,VWS V14.01,2013-01-20 04:39:00,
2013-01-19 23:44:00,45.9,36.3,24.25,WSW,242,7.0,17.0,69,0.00,,SKC,0.00,VWS V14.01,2013-01-20 04:44:00,
2013-01-19 23:49:00,45.9,36.3,24.26,West,263,3.0,16.0,69,0.00,,SKC,0.00,VWS V14.01,2013-01-20 04:49:00,
2013-01-19 23:54:00,46.0,36.4,24.26,WSW,242,5.0,18.0,69,0.00,,SKC,0.00,VWS V14.01,2013-01-20 04:54:00,